Time;durP1;ratioP1;P1;durP2;ratioP2;P2;SDS_P1;SDS_P2;PMS_P1;PMS_P2;Temp;Humidity;BMP_temperature;BMP_pressure;BME280_temperature;BME280_humidity;BME280_pressure;Samples;Min_cycle;Max_cycle;Signal;HPM_P1;HPM_P2
2022/06/23 00:00:27;;;;;;;23.75;12.70;;;;;;;15.54;97.00;101230.19;5041959;28;20556;-72
2022/06/23 00:02:56;;;;;;;21.00;11.05;;;;;;;15.46;97.53;101223.69;5043342;28;20494;-72
2022/06/23 00:05:25;;;;;;;25.20;12.63;;;;;;;15.50;96.87;101236.75;5041488;28;20039;-72
2022/06/23 00:07:55;;;;;;;23.15;12.38;;;;;;;15.38;96.88;101232.34;5034313;28;20051;-72
2022/06/23 00:10:35;;;;;;;22.80;12.50;;;;;;;15.40;97.82;101240.28;5040163;28;20044;-72
2022/06/23 00:13:03;;;;;;;22.20;12.27;;;;;;;15.29;97.99;101235.75;5035864;28;20041;-72
2022/06/23 00:15:41;;;;;;;24.20;12.57;;;;;;;15.21;98.49;101232.78;5035149;28;20041;-73
2022/06/23 00:18:16;;;;;;;23.67;12.85;;;;;;;15.31;98.12;101235.63;5039408;28;20095;-72
2022/06/23 00:20:53;;;;;;;23.85;12.55;;;;;;;15.23;98.12;101234.38;5031064;28;20045;-72
2022/06/23 00:23:25;;;;;;;20.35;12.65;;;;;;;15.26;97.55;101227.91;5050025;28;20048;-72
2022/06/23 00:26:12;;;;;;;28.35;14.00;;;;;;;15.12;98.53;101236.19;5030562;28;20069;-73
2022/06/23 00:28:50;;;;;;;29.92;13.50;;;;;;;15.15;98.18;101230.56;5041642;28;20035;-72
2022/06/23 00:31:33;;;;;;;25.98;12.68;;;;;;;15.09;98.72;101225.66;5041770;28;20041;-72
2022/06/23 00:34:01;;;;;;;25.90;12.18;;;;;;;15.08;98.75;101232.88;5041625;28;20051;-72
2022/06/23 00:36:36;;;;;;;25.85;12.85;;;;;;;15.17;97.14;101236.69;5055392;28;20041;-72
2022/06/23 00:39:05;;;;;;;23.55;12.00;;;;;;;15.13;97.96;101228.00;5028492;28;20103;-72
2022/06/23 00:41:36;;;;;;;30.77;12.05;;;;;;;15.07;97.34;101233.84;5040689;28;20045;-72
2022/06/23 00:44:08;;;;;;;29.75;13.38;;;;;;;15.05;97.92;101230.41;5027262;28;20044;-72
2022/06/23 00:47:05;;;;;;;21.30;12.05;;;;;;;15.11;97.60;101227.28;5041534;28;20064;-73
2022/06/23 00:49:47;;;;;;;28.27;14.25;;;;;;;15.02;98.20;101226.13;5029510;28;20045;-72
2022/06/23 00:52:23;;;;;;;25.90;14.13;;;;;;;15.08;98.12;101226.66;5044542;28;20045;-72
2022/06/23 00:54:53;;;;;;;30.17;12.68;;;;;;;15.10;97.82;101222.00;5061085;28;20070;-72
2022/06/23 00:57:36;;;;;;;20.10;11.40;;;;;;;15.07;97.00;101220.41;5025739;28;20221;-72
2022/06/23 01:00:13;;;;;;;26.10;12.93;;;;;;;14.99;98.41;101207.56;5019696;28;20045;-72
2022/06/23 01:02:44;;;;;;;27.67;13.32;;;;;;;14.96;99.02;101210.50;5059333;28;20040;-72
2022/06/23 01:05:19;;;;;;;22.63;12.50;;;;;;;14.99;99.10;101212.06;5043551;28;20037;-72
2022/06/23 01:08:13;;;;;;;22.98;13.52;;;;;;;14.96;99.26;101212.28;5040960;28;20511;-73
2022/06/23 01:10:47;;;;;;;21.02;12.35;;;;;;;14.89;99.57;101208.38;5040782;28;20105;-71
2022/06/23 01:13:42;;;;;;;22.08;13.20;;;;;;;14.85;100.00;101212.25;5041142;28;20053;-72
2022/06/23 01:16:20;;;;;;;24.05;12.93;;;;;;;14.83;99.97;101209.69;5055192;28;20049;-72
2022/06/23 01:19:09;;;;;;;25.08;13.75;;;;;;;14.72;100.00;101215.03;5023124;28;20037;-72
2022/06/23 01:21:43;;;;;;;21.73;13.07;;;;;;;14.74;100.00;101210.38;5010669;28;20045;-72
2022/06/23 01:24:40;;;;;;;26.85;13.35;;;;;;;14.72;100.00;101215.03;5055160;28;20407;-72
2022/06/23 01:27:18;;;;;;;25.83;14.25;;;;;;;14.68;100.00;101216.22;5045370;28;20048;-72
2022/06/23 01:29:48;;;;;;;30.73;14.73;;;;;;;14.64;100.00;101220.94;5054477;28;20845;-72
2022/06/23 01:32:30;;;;;;;28.85;14.23;;;;;;;14.60;100.00;101210.56;5047874;28;20036;-72
2022/06/23 01:35:05;;;;;;;;;;;;;;;14.52;100.00;101212.97;5046885;28;20497;-72
2022/06/23 01:37:48;;;;;;;26.13;13.93;;;;;;;14.49;100.00;101211.34;5044907;28;19916;-72
2022/06/23 01:40:22;;;;;;;20.90;13.68;;;;;;;14.57;100.00;101208.13;5045372;28;20048;-72
2022/06/23 01:43:12;;;;;;;27.50;14.00;;;;;;;14.44;100.00;101214.34;5044292;28;20053;-72
2022/06/23 01:45:45;;;;;;;31.25;15.05;;;;;;;14.41;100.00;101219.09;5044779;28;20032;-72
2022/06/23 01:51:20;;;;;;;21.63;14.05;;;;;;;14.58;100.00;101221.41;5044348;28;20052;-72
2022/06/23 01:53:46;;;;;;;27.15;14.80;;;;;;;14.57;100.00;101216.16;5058151;28;20119;-71
2022/06/23 01:56:33;;;;;;;22.85;12.88;;;;;;;14.54;100.00;101213.69;5044036;28;20716;-72
2022/06/23 01:59:21;;;;;;;24.35;14.38;;;;;;;14.42;100.00;101205.56;5047191;28;20142;-72
2022/06/23 02:01:55;;;;;;;27.55;15.00;;;;;;;14.40;100.00;101206.63;5051932;28;20041;-72
2022/06/23 02:04:33;;;;;;;28.45;14.45;;;;;;;14.23;100.00;101205.19;5043566;28;20037;-72
2022/06/23 02:07:07;;;;;;;26.23;14.20;;;;;;;14.29;100.00;101198.53;5043819;28;20040;-72
2022/06/23 02:09:42;;;;;;;30.85;14.20;;;;;;;14.27;100.00;101190.59;5043862;28;20148;-72
2022/06/23 02:12:21;;;;;;;25.70;14.45;;;;;;;14.13;100.00;101190.75;5058161;28;20452;-72
2022/06/23 02:15:05;;;;;;;26.38;13.85;;;;;;;14.18;100.00;101186.75;5043962;28;20094;-72
2022/06/23 02:17:47;;;;;;;26.98;14.23;;;;;;;14.20;100.00;101181.25;5043686;28;20045;-72
2022/06/23 02:20:52;;;;;;;30.10;14.85;;;;;;;14.01;100.00;101189.81;5049584;28;20138;-72
2022/06/23 02:23:28;;;;;;;23.95;14.32;;;;;;;14.02;100.00;101178.13;5028209;28;20031;-72
2022/06/23 02:26:15;;;;;;;31.92;14.82;;;;;;;13.93;100.00;101182.31;5044456;28;20589;-72
2022/06/23 02:28:56;;;;;;;28.83;16.10;;;;;;;14.00;100.00;101183.56;5044077;28;20028;-72
2022/06/23 02:31:24;;;;;;;28.40;14.73;;;;;;;14.17;100.00;101192.25;5057491;28;20485;-72
2022/06/23 02:33:59;;;;;;;30.45;15.00;;;;;;;14.18;100.00;101185.91;5043850;28;20060;-72
2022/06/23 02:36:36;;;;;;;25.83;14.35;;;;;;;14.16;100.00;101186.03;5043574;28;20520;-72
2022/06/23 02:39:14;;;;;;;30.05;14.48;;;;;;;14.09;100.00;101184.72;5037842;28;20045;-72
2022/06/23 02:41:46;;;;;;;23.83;13.32;;;;;;;14.06;100.00;101179.59;5037755;28;20051;-72
2022/06/23 02:44:30;;;;;;;27.20;13.52;;;;;;;13.98;100.00;101176.63;5032043;28;20131;-72
2022/06/23 02:47:04;;;;;;;32.25;13.90;;;;;;;13.99;100.00;101162.22;5029481;28;20791;-72
2022/06/23 02:49:55;;;;;;;25.67;13.60;;;;;;;13.95;100.00;101166.09;5052386;28;20139;-72
2022/06/23 02:52:51;;;;;;;31.27;14.52;;;;;;;14.00;100.00;101166.63;5059842;28;20044;-72
2022/06/23 02:55:38;;;;;;;27.25;15.05;;;;;;;13.99;100.00;101181.00;5043620;28;20124;-72
2022/06/23 02:58:16;;;;;;;29.35;13.52;;;;;;;13.85;100.00;101173.94;5043331;28;20049;-72
2022/06/23 03:00:50;;;;;;;30.73;15.20;;;;;;;13.83;100.00;101178.56;5043011;28;20043;-72
2022/06/23 03:03:31;;;;;;;21.02;14.32;;;;;;;13.80;100.00;101173.41;5032983;28;20040;-72
2022/06/23 03:06:29;;;;;;;27.08;14.27;;;;;;;13.82;100.00;101187.59;5061150;28;20060;-74
2022/06/23 03:09:23;;;;;;;32.50;13.90;;;;;;;13.83;99.87;101181.25;5049768;28;20044;-72
2022/06/23 03:12:00;;;;;;;26.13;13.52;;;;;;;13.82;100.00;101181.38;5054059;28;20048;-72
2022/06/23 03:14:50;;;;;;;24.65;13.90;;;;;;;13.90;99.70;101179.84;5045648;28;20076;-72
2022/06/23 03:17:35;;;;;;;21.23;14.73;;;;;;;13.82;100.00;101190.28;5044089;28;20039;-72
2022/06/23 03:20:13;;;;;;;26.52;14.50;;;;;;;13.60;100.00;101179.34;5049778;28;20129;-72
2022/06/23 03:22:47;;;;;;;27.00;13.02;;;;;;;13.67;100.00;101186.00;5048786;28;20048;-72
2022/06/23 03:25:16;;;;;;;25.73;14.45;;;;;;;13.77;100.00;101196.94;5050572;28;20055;-72
2022/06/23 03:27:44;;;;;;;28.90;15.02;;;;;;;14.04;99.69;101202.97;5044956;28;20051;-72
2022/06/23 03:30:22;;;;;;;24.88;14.25;;;;;;;14.26;98.75;101202.31;5057276;28;20048;-72
2022/06/23 03:32:56;;;;;;;26.92;14.13;;;;;;;14.49;96.27;101196.09;5025096;28;20051;-73
2022/06/23 03:35:33;;;;;;;22.95;13.55;;;;;;;14.40;95.75;101196.75;5030361;28;20044;-72
2022/06/23 03:38:02;;;;;;;28.65;13.52;;;;;;;14.25;96.21;101193.38;5042624;28;20148;-72
2022/06/23 03:43:41;;;;;;;21.95;13.00;;;;;;;14.14;97.86;101189.75;5055686;28;20045;-74
2022/06/23 03:46:14;;;;;;;27.80;14.77;;;;;;;14.07;99.16;101183.16;5042233;28;20045;-73
2022/06/23 03:49:02;;;;;;;22.45;13.55;;;;;;;14.11;98.76;101188.19;5060685;28;20044;-72
2022/06/23 03:51:33;;;;;;;31.08;15.00;;;;;;;14.20;97.61;101190.16;5037852;28;20044;-73
2022/06/23 03:54:17;;;;;;;26.75;14.45;;;;;;;14.00;98.42;101182.72;5042735;28;20052;-73
2022/06/23 03:56:47;;;;;;;29.67;14.50;;;;;;;14.14;98.67;101187.94;5042469;28;20045;-73
2022/06/23 03:59:16;;;;;;;23.48;14.60;;;;;;;14.20;98.07;101184.81;5031164;28;20045;-72
2022/06/23 04:01:49;;;;;;;22.05;14.23;;;;;;;14.27;98.14;101176.31;5049223;28;20084;-72
2022/06/23 04:04:16;;;;;;;29.85;15.05;;;;;;;14.25;98.40;101173.72;5039232;28;20053;-73
2022/06/23 04:06:47;;;;;;;26.58;14.88;;;;;;;14.08;99.42;101176.81;5050096;28;20395;-72
2022/06/23 04:09:26;;;;;;;36.80;15.27;;;;;;;14.23;99.00;101187.28;5048069;28;20083;-72
2022/06/23 04:12:30;;;;;;;28.73;14.38;;;;;;;14.33;98.48;101184.78;5049305;28;20040;-72
2022/06/23 04:15:05;;;;;;;35.38;14.65;;;;;;;14.26;99.21;101183.53;4980435;28;20042;-73
2022/06/23 04:17:42;;;;;;;30.92;15.00;;;;;;;14.24;99.32;101185.44;4980818;28;20058;-73
2022/06/23 04:20:31;;;;;;;22.85;13.63;;;;;;;14.26;99.38;101172.78;4980852;28;20584;-73
2022/06/23 04:23:11;;;;;;;28.15;14.27;;;;;;;14.33;99.48;101176.72;4981160;28;20089;-72
2022/06/23 04:25:48;;;;;;;29.60;13.65;;;;;;;14.39;99.26;101162.84;4981656;28;20058;-72
2022/06/23 04:28:40;;;;;;;23.80;14.40;;;;;;;14.59;98.15;101168.59;4999102;28;20049;-72
2022/06/23 04:31:07;;;;;;;27.65;13.68;;;;;;;14.59;98.34;101164.06;4984006;28;20425;-72
2022/06/23 04:33:38;;;;;;;26.60;14.77;;;;;;;14.75;97.72;101164.63;4967592;28;20054;-73
2022/06/23 04:36:05;;;;;;;27.77;14.07;;;;;;;14.83;96.86;101144.41;4983556;28;20046;-73
2022/06/23 04:38:46;;;;;;;21.02;13.82;;;;;;;14.80;97.73;101147.31;4982721;28;20443;-73
2022/06/23 04:41:27;;;;;;;28.55;14.70;;;;;;;14.85;97.25;101163.94;4997909;28;20085;-73
2022/06/23 04:44:01;;;;;;;26.15;13.82;;;;;;;15.04;96.31;101161.56;5009620;28;20054;-73
2022/06/23 04:46:33;;;;;;;29.63;14.32;;;;;;;15.18;96.04;101169.41;5015321;28;20050;-73
2022/06/23 04:49:06;;;;;;;22.67;13.00;;;;;;;15.25;95.20;101167.94;5017742;28;20073;-72
2022/06/23 04:51:39;;;;;;;23.38;13.70;;;;;;;15.60;94.40;101163.47;5019602;28;20175;-76
2022/06/23 04:54:14;;;;;;;25.65;12.88;;;;;;;15.63;93.88;101171.31;5011570;28;20033;-72
2022/06/23 04:56:48;;;;;;;22.65;12.82;;;;;;;17.13;87.27;101164.34;5024021;28;20647;-73
2022/06/23 04:59:53;;;;;;;19.27;11.38;;;;;;;18.03;81.55;101168.09;5030932;28;20106;-72
2022/06/23 05:02:31;;;;;;;20.30;11.10;;;;;;;19.54;75.48;101165.81;5041748;28;20052;-73
2022/06/23 05:05:04;;;;;;;22.95;10.98;;;;;;;20.03;71.15;101167.34;5027213;28;20044;-73
2022/06/23 05:07:52;;;;;;;15.13;9.80;;;;;;;20.62;69.07;101168.69;5030982;28;20081;-73
2022/06/23 05:10:24;;;;;;;17.17;10.43;;;;;;;20.78;68.90;101161.72;5006466;28;20066;-73
2022/06/23 05:12:55;;;;;;;17.25;10.82;;;;;;;21.06;67.78;101154.34;5032288;28;20156;-72
2022/06/23 05:15:30;;;;;;;21.02;10.30;;;;;;;21.12;66.39;101157.25;5037046;28;20052;-73
2022/06/23 05:18:03;;;;;;;17.60;10.70;;;;;;;21.58;64.94;101140.78;5029695;28;20051;-73
2022/06/23 05:20:39;;;;;;;13.57;9.63;;;;;;;21.41;65.04;101156.97;5009546;28;20052;-73
2022/06/23 05:23:11;;;;;;;20.83;10.35;;;;;;;22.61;61.62;101161.38;5056077;28;20072;-72
2022/06/23 05:25:41;;;;;;;18.52;10.57;;;;;;;22.07;63.22;101162.75;5038285;28;20041;-73
2022/06/23 05:28:21;;;;;;;19.38;9.55;;;;;;;22.67;61.18;101154.41;5041691;28;20056;-73
2022/06/23 05:30:56;;;;;;;17.58;9.48;;;;;;;22.06;62.68;101164.59;5026889;28;20140;-73
2022/06/23 05:33:35;;;;;;;15.63;9.70;;;;;;;20.88;66.54;101159.75;5028706;28;20034;-73
2022/06/23 05:36:05;;;;;;;17.77;9.50;;;;;;;21.31;65.21;101161.66;5027567;28;20388;-73
2022/06/23 05:38:39;;;;;;;17.63;9.15;;;;;;;21.72;64.73;101151.91;5024024;28;20909;-72
2022/06/23 05:41:23;;;;;;;18.38;9.65;;;;;;;21.93;63.76;101156.06;5024160;28;20065;-73
2022/06/23 05:43:51;;;;;;;18.75;9.90;;;;;;;22.38;61.10;101157.59;5044886;28;20083;-73
2022/06/23 05:46:20;;;;;;;16.80;8.43;;;;;;;21.56;64.09;101148.25;5058457;28;20674;-73
2022/06/23 05:49:11;;;;;;;15.65;9.38;;;;;;;21.75;64.42;101152.59;5047122;28;20041;-73
2022/06/23 05:51:57;;;;;;;15.77;9.50;;;;;;;21.77;63.43;101150.56;5046029;28;20048;-73
2022/06/23 05:54:43;;;;;;;14.73;8.38;;;;;;;22.13;61.72;101152.09;5044334;28;20867;-72
2022/06/23 05:57:21;;;;;;;15.73;9.35;;;;;;;22.12;61.46;101158.53;5044774;28;20063;-73
2022/06/23 06:00:11;;;;;;;15.30;9.73;;;;;;;22.71;60.87;101155.78;5044830;28;20131;-73
2022/06/23 06:02:55;;;;;;;15.52;8.93;;;;;;;23.47;58.53;101157.28;5044522;28;20494;-73
2022/06/23 06:05:27;;;;;;;15.35;9.13;;;;;;;23.40;60.02;101142.69;5044215;28;20040;-72
2022/06/23 06:07:53;;;;;;;;;;;;;;;23.62;57.98;101141.09;5027196;28;20481;-73
2022/06/23 06:10:22;;;;;;;12.90;8.20;;;;;;;23.74;56.08;101136.97;5052815;28;19931;-73
2022/06/23 06:12:50;;;;;;;14.07;8.50;;;;;;;23.93;55.04;101138.44;5042676;28;20187;-74
2022/06/23 06:15:24;;;;;;;11.55;8.55;;;;;;;23.90;55.79;101136.94;5048609;28;20379;-73
2022/06/23 06:17:55;;;;;;;9.52;7.65;;;;;;;23.73;54.95;101129.84;5040530;28;20829;-73
2022/06/23 06:20:25;;;;;;;15.77;9.50;;;;;;;23.36;56.55;101128.56;5058282;28;20082;-73
2022/06/23 06:23:02;;;;;;;12.57;8.65;;;;;;;24.00;55.22;101126.66;5058405;28;20451;-73
2022/06/23 06:25:30;;;;;;;16.40;8.27;;;;;;;24.14;54.55;101135.94;5048464;28;20194;-74
2022/06/23 06:28:01;;;;;;;17.17;7.85;;;;;;;24.78;52.64;101133.84;5043487;28;20043;-74
2022/06/23 06:30:36;;;;;;;16.98;8.20;;;;;;;24.27;52.79;101133.50;5059344;28;20052;-73
2022/06/23 06:33:03;;;;;;;12.00;7.93;;;;;;;25.06;50.59;101127.81;5048939;28;20032;-73
2022/06/23 06:35:29;;;;;;;12.90;7.90;;;;;;;24.76;52.33;101132.34;5050636;28;20041;-77
2022/06/23 06:38:17;;;;;;;13.35;8.05;;;;;;;24.86;50.76;101135.66;5053935;28;20048;-74
2022/06/23 06:40:46;;;;;;;16.77;8.13;;;;;;;24.69;52.06;101128.63;5038530;28;20036;-73
2022/06/23 06:43:17;;;;;;;13.25;7.65;;;;;;;24.99;50.30;101133.16;5045068;28;20078;-72
2022/06/23 06:45:43;;;;;;;9.93;7.57;;;;;;;25.00;52.67;101126.69;5048226;28;20033;-71
2022/06/23 06:48:21;;;;;;;13.57;7.57;;;;;;;25.14;49.75;101129.63;5040017;28;20036;-71
2022/06/23 06:50:52;;;;;;;11.05;7.68;;;;;;;24.66;49.82;101140.78;5044181;28;20624;-73
2022/06/23 06:53:23;;;;;;;9.27;6.22;;;;;;;25.04;49.77;101140.78;5051335;28;20395;-71
2022/06/23 06:56:05;;;;;;;11.20;7.40;;;;;;;25.54;52.08;101137.38;5046840;28;20493;-71
2022/06/23 06:58:35;;;;;;;9.18;7.18;;;;;;;25.19;51.01;101138.97;5008903;28;20124;-72
2022/06/23 07:01:07;;;;;;;15.75;8.45;;;;;;;25.64;51.18;101142.56;5043520;28;20056;-72
2022/06/23 07:03:35;;;;;;;14.40;7.68;;;;;;;25.68;51.32;101145.78;5023936;28;20029;-72
2022/06/23 07:06:17;;;;;;;12.70;7.82;;;;;;;25.92;49.35;101141.94;5043886;28;20584;-72
2022/06/23 07:09:06;;;;;;;13.57;6.93;;;;;;;25.71;48.15;101143.53;5041037;28;20058;-73
2022/06/23 07:11:47;;;;;;;12.98;7.65;;;;;;;25.45;49.54;101137.66;5043613;28;20037;-73
2022/06/23 07:14:22;;;;;;;14.80;7.00;;;;;;;26.13;47.66;101138.41;5042437;28;20044;-72
2022/06/23 07:16:54;;;;;;;10.15;6.38;;;;;;;26.35;46.56;101140.97;5042387;28;20068;-72
2022/06/23 07:19:46;;;;;;;9.30;6.55;;;;;;;26.13;49.09;101132.94;5042255;28;20051;-72
2022/06/23 07:22:30;;;;;;;;;;;;;;;26.22;47.18;101132.66;5043046;28;20033;-72
2022/06/23 07:25:03;;;;;;;12.60;6.10;;;;;;;26.06;50.63;101135.63;5039134;28;20035;-73
2022/06/23 07:27:41;;;;;;;11.95;6.15;;;;;;;26.81;47.53;101137.09;5041699;28;20032;-73
2022/06/23 07:30:33;;;;;;;11.98;6.93;;;;;;;26.58;48.19;101134.53;5044659;28;20048;-73
2022/06/23 07:33:04;;;;;;;11.68;6.30;;;;;;;26.50;46.83;101126.44;5034786;28;20494;-73
2022/06/23 07:35:36;;;;;;;11.23;6.30;;;;;;;27.06;45.27;101127.41;5046804;28;20120;-73
2022/06/23 07:38:11;;;;;;;17.02;6.55;;;;;;;27.21;46.68;101124.59;5051162;28;20048;-73
2022/06/23 07:40:58;;;;;;;12.05;6.43;;;;;;;27.47;49.12;101120.34;5044758;28;20037;-73
2022/06/23 07:43:49;;;;;;;10.45;6.35;;;;;;;27.33;47.92;101111.19;5064998;28;20313;-73
2022/06/23 07:46:14;;;;;;;13.73;6.68;;;;;;;27.01;46.16;101124.41;5025630;28;20041;-73
2022/06/23 07:48:41;;;;;;;10.45;5.75;;;;;;;27.38;44.34;101113.31;5036270;28;20474;-75
2022/06/23 07:51:09;;;;;;;10.00;6.25;;;;;;;27.08;46.14;101130.81;5042141;28;20048;-74
2022/06/23 07:53:38;;;;;;;12.70;6.18;;;;;;;27.41;46.81;101121.13;5035826;28;20512;-74
2022/06/23 07:56:06;;;;;;;12.98;6.68;;;;;;;27.48;47.93;101125.59;5031577;28;20090;-74
2022/06/23 07:58:34;;;;;;;9.35;6.40;;;;;;;27.05;48.61;101116.63;5044242;28;20048;-74
2022/06/23 08:01:18;;;;;;;10.45;6.38;;;;;;;27.34;47.07;101108.22;5048954;28;20041;-74
2022/06/23 08:03:56;;;;;;;9.48;5.65;;;;;;;27.30;47.95;101106.09;5030793;28;20068;-73
2022/06/23 08:06:24;;;;;;;14.70;6.65;;;;;;;27.17;47.72;101100.53;5045068;28;20047;-73
2022/06/23 08:08:54;;;;;;;10.20;5.90;;;;;;;27.96;48.67;101095.50;5043530;28;21415;-74
2022/06/23 08:14:33;;;;;;;11.65;6.35;;;;;;;27.63;46.31;101092.59;5036906;28;20571;-73
2022/06/23 08:17:02;;;;;;;10.10;5.88;;;;;;;27.65;48.26;101092.38;5020416;28;20128;-73
2022/06/23 08:19:40;;;;;;;12.27;6.43;;;;;;;27.87;47.77;101085.78;5051899;28;20422;-74
2022/06/23 08:22:18;;;;;;;11.30;6.35;;;;;;;28.26;46.17;101087.78;5056260;28;20499;-73
2022/06/23 08:24:48;;;;;;;10.43;5.82;;;;;;;28.50;48.17;101093.78;5044226;28;20045;-74
2022/06/23 08:27:19;;;;;;;13.15;6.15;;;;;;;28.19;47.14;101102.56;5041733;28;20037;-73
2022/06/23 08:29:48;;;;;;;;;;;;;;;28.12;48.05;101086.09;5044524;28;20094;-74
2022/06/23 08:32:14;;;;;;;10.52;5.95;;;;;;;28.27;47.07;101089.50;5044642;28;19920;-73
2022/06/23 08:34:59;;;;;;;15.98;6.97;;;;;;;28.69;45.83;101084.72;5054157;28;20693;-74
2022/06/23 08:37:24;;;;;;;13.02;5.88;;;;;;;28.86;45.06;101083.22;5053126;28;20047;-74
2022/06/23 08:39:58;;;;;;;9.43;6.18;;;;;;;28.47;47.92;101084.09;5038319;28;20037;-73
2022/06/23 08:42:33;;;;;;;12.82;6.38;;;;;;;28.08;46.28;101088.38;5052184;28;20095;-73
2022/06/23 08:45:18;;;;;;;13.68;5.72;;;;;;;28.94;44.86;101090.47;5045078;28;20040;-73
2022/06/23 08:48:06;;;;;;;12.77;6.28;;;;;;;28.52;46.48;101088.94;5049298;28;20043;-74
2022/06/23 08:50:45;;;;;;;12.52;6.03;;;;;;;28.87;47.45;101084.94;5041867;28;20699;-74
2022/06/23 08:53:18;;;;;;;9.23;5.82;;;;;;;28.80;47.45;101077.75;5022362;28;20045;-74
2022/06/23 08:55:54;;;;;;;14.90;5.32;;;;;;;29.05;46.28;101075.22;5028092;28;20045;-74
2022/06/23 08:58:39;;;;;;;18.27;7.32;;;;;;;29.30;45.38;101073.50;5024802;28;20100;-74
2022/06/23 09:01:13;;;;;;;10.68;5.80;;;;;;;28.52;47.06;101086.19;5040240;28;20103;-73
2022/06/23 09:04:00;;;;;;;18.42;6.50;;;;;;;28.68;46.79;101077.56;5040050;28;20041;-73
2022/06/23 09:06:41;;;;;;;12.95;5.50;;;;;;;28.83;45.63;101080.94;5044275;28;20573;-72
2022/06/23 09:09:21;;;;;;;13.98;5.78;;;;;;;29.49;47.59;101073.66;5045908;28;20074;-72
2022/06/23 09:11:52;;;;;;;10.15;4.93;;;;;;;28.87;45.25;101075.88;5042282;28;20060;-72
2022/06/23 09:14:58;;;;;;;8.80;4.97;;;;;;;28.87;46.64;101075.88;5027489;28;20140;-71
2022/06/23 09:18:01;;;;;;;9.02;4.72;;;;;;;29.42;44.87;101077.28;5044852;28;20577;-73
2022/06/23 09:20:30;;;;;;;8.38;4.18;;;;;;;29.88;46.21;101072.72;5065552;28;20032;-71
2022/06/23 09:23:22;;;;;;;7.35;4.47;;;;;;;28.64;46.66;101082.59;5041958;28;20037;-71
2022/06/23 09:25:59;;;;;;;12.18;4.80;;;;;;;29.28;44.30;101074.78;5047340;28;20040;-72
2022/06/23 09:28:57;;;;;;;14.75;4.70;;;;;;;29.66;44.58;101073.00;5052378;28;20182;-72
2022/06/23 09:31:44;;;;;;;19.20;4.30;;;;;;;29.45;44.91;101072.41;5044320;28;20527;-72
2022/06/23 09:34:25;;;;;;;10.90;4.32;;;;;;;30.11;45.97;101061.97;5048062;28;20064;-72
2022/06/23 09:37:03;;;;;;;13.98;4.47;;;;;;;30.06;45.91;101071.97;5043498;28;20032;-72
2022/06/23 09:39:34;;;;;;;11.43;3.95;;;;;;;30.10;44.25;101064.97;5049175;28;20043;-72
2022/06/23 09:42:27;;;;;;;10.75;4.22;;;;;;;29.35;44.50;101065.44;5035672;28;20521;-72
2022/06/23 09:45:04;;;;;;;10.07;4.85;;;;;;;29.41;46.50;101061.84;5037620;28;20141;-71
2022/06/23 09:47:44;;;;;;;8.43;4.43;;;;;;;29.24;46.92;101066.13;5034326;28;20041;-71
2022/06/23 09:50:25;;;;;;;11.35;5.32;;;;;;;29.22;46.13;101064.63;5040610;28;20118;-72
2022/06/23 09:52:53;;;;;;;9.00;4.35;;;;;;;29.66;45.19;101059.25;5044549;28;20037;-71
2022/06/23 09:55:34;;;;;;;10.82;4.85;;;;;;;29.45;45.31;101065.00;5043615;28;20045;-72
2022/06/23 09:58:18;;;;;;;16.07;5.10;;;;;;;30.11;45.42;101058.38;5044454;28;20095;-71
2022/06/23 10:01:05;;;;;;;13.13;4.53;;;;;;;30.67;47.26;101055.72;5044461;28;20128;-71
2022/06/23 10:03:43;;;;;;;11.60;5.55;;;;;;;30.39;46.97;101055.28;5038591;28;20083;-72
2022/06/23 10:06:26;;;;;;;12.45;4.68;;;;;;;29.87;44.46;101051.75;5052486;28;20044;-71
2022/06/23 10:09:08;;;;;;;12.60;4.80;;;;;;;29.90;43.88;101051.31;5047481;28;20032;-71
2022/06/23 10:11:53;;;;;;;11.85;5.80;;;;;;;29.83;45.65;101053.28;5033367;28;20037;-71
2022/06/23 10:14:41;;;;;;;11.27;4.80;;;;;;;30.11;45.05;101053.72;5045191;28;20087;-71
2022/06/23 10:17:07;;;;;;;11.27;5.45;;;;;;;29.98;44.48;101045.56;5053665;28;20048;-72
2022/06/23 10:19:44;;;;;;;10.15;4.60;;;;;;;30.16;43.84;101045.69;5060211;28;20047;-71
2022/06/23 10:22:40;;;;;;;9.18;4.28;;;;;;;29.52;44.48;101042.97;5053693;28;20483;-71
2022/06/23 10:25:23;;;;;;;16.60;4.60;;;;;;;29.88;47.30;101042.47;5009042;28;20079;-71
2022/06/23 10:28:10;;;;;;;11.75;4.88;;;;;;;30.16;45.72;101033.84;5050194;28;20045;-71
2022/06/23 10:30:58;;;;;;;17.42;4.82;;;;;;;30.75;44.47;101031.72;5054383;28;20620;-71
2022/06/23 10:33:29;;;;;;;7.03;4.45;;;;;;;31.25;44.94;101017.88;5034470;28;20740;-72
2022/06/23 10:36:27;;;;;;;12.85;4.85;;;;;;;30.56;43.73;101017.88;5043980;28;20058;-72
2022/06/23 10:39:17;;;;;;;10.35;4.75;;;;;;;30.60;44.15;101030.13;5043503;28;20056;-71
2022/06/23 10:41:42;;;;;;;10.48;4.30;;;;;;;31.13;45.07;101023.31;5052484;28;20029;-71
2022/06/23 10:44:22;;;;;;;14.48;4.65;;;;;;;31.49;45.12;101013.38;5040298;28;20399;-72
2022/06/23 10:46:53;;;;;;;7.63;4.72;;;;;;;31.36;42.88;101006.94;5036609;28;20151;-72
2022/06/23 10:49:35;;;;;;;9.43;4.18;;;;;;;31.53;42.38;101003.53;5041231;28;20059;-72
2022/06/23 10:52:22;;;;;;;7.97;3.40;;;;;;;30.09;41.87;101008.25;5050134;28;20049;-71
2022/06/23 10:55:10;;;;;;;10.60;4.15;;;;;;;30.35;42.74;101007.25;5041540;28;20045;-72
2022/06/23 10:57:52;;;;;;;8.15;4.07;;;;;;;31.01;42.94;100992.91;5036794;28;20038;-72
2022/06/23 11:00:45;;;;;;;7.40;4.35;;;;;;;31.00;42.01;100995.88;5044112;28;20041;-72
2022/06/23 11:03:35;;;;;;;7.22;4.13;;;;;;;30.96;41.86;100992.75;5031757;28;20048;-72
2022/06/23 11:06:18;;;;;;;12.18;5.15;;;;;;;30.53;40.74;100987.22;5043009;28;20032;-71
2022/06/23 11:09:02;;;;;;;5.88;3.72;;;;;;;30.24;41.05;100985.97;5046734;28;20041;-70
2022/06/23 11:11:48;;;;;;;6.28;3.97;;;;;;;31.05;39.40;100980.34;5051889;28;20468;-71
2022/06/23 11:14:41;;;;;;;8.90;4.28;;;;;;;30.80;39.68;100983.16;5042120;28;20045;-72
2022/06/23 11:17:23;;;;;;;9.25;4.10;;;;;;;30.55;40.87;100983.16;5038729;28;20033;-71
2022/06/23 11:19:54;;;;;;;11.02;4.30;;;;;;;30.68;40.02;100984.97;5050937;28;20403;-71
2022/06/23 11:22:20;;;;;;;8.40;4.55;;;;;;;31.15;39.83;100986.16;5030748;28;20571;-73
2022/06/23 11:25:19;;;;;;;6.00;4.03;;;;;;;31.58;41.10;100978.88;5039304;28;20033;-71
2022/06/23 11:28:09;;;;;;;5.18;3.72;;;;;;;31.73;42.05;100979.34;5037284;28;20041;-71
2022/06/23 11:30:57;;;;;;;11.77;4.43;;;;;;;30.77;40.10;100978.09;5054194;28;20495;-72
2022/06/23 11:34:00;;;;;;;8.00;4.30;;;;;;;30.99;39.08;100980.44;5040878;28;20036;-72
2022/06/23 11:36:49;;;;;;;7.70;3.83;;;;;;;31.38;40.68;100971.75;5029754;28;20830;-72
2022/06/23 11:40:00;;;;;;;5.25;3.50;;;;;;;30.37;39.37;100974.84;5031725;28;20038;-70
2022/06/23 11:42:50;;;;;;;9.45;4.32;;;;;;;30.74;39.95;100962.06;5019351;28;20482;-71
2022/06/23 11:45:27;;;;;;;10.75;4.57;;;;;;;30.73;39.68;100954.03;5051398;28;20491;-70
2022/06/23 11:48:05;;;;;;;8.55;4.18;;;;;;;31.48;41.20;100951.88;5039883;28;20042;-71
2022/06/23 11:50:36;;;;;;;9.27;3.80;;;;;;;31.18;40.06;100944.38;5043797;28;20041;-71
2022/06/23 11:53:20;;;;;;;14.73;4.80;;;;;;;31.34;41.42;100953.13;5028896;28;20694;-72
2022/06/23 11:55:59;;;;;;;7.82;3.97;;;;;;;31.43;42.03;100947.06;5036749;28;20040;-71
2022/06/23 11:58:53;;;;;;;9.95;3.47;;;;;;;30.94;38.15;100942.56;5036137;28;20403;-71
2022/06/23 12:01:24;;;;;;;10.65;5.00;;;;;;;31.29;39.88;100945.56;5037564;28;20033;-72
2022/06/23 12:04:04;;;;;;;10.50;4.00;;;;;;;31.62;41.00;100939.56;5037728;28;20041;-70
2022/06/23 12:06:48;;;;;;;13.43;5.80;;;;;;;31.92;39.73;100947.88;5039263;28;20037;-71
2022/06/23 12:09:34;;;;;;;6.30;3.55;;;;;;;31.36;38.03;100948.22;5038439;28;20143;-71
2022/06/23 12:12:02;;;;;;;9.60;3.80;;;;;;;31.40;38.71;100941.19;5047078;28;20052;-72
2022/06/23 12:14:28;;;;;;;7.20;3.63;;;;;;;31.93;37.42;100934.91;5036231;28;20080;-72